Time;durP1;ratioP1;P1;durP2;ratioP2;P2;SDS_P1;SDS_P2;PMS_P1;PMS_P2;Temp;Humidity;BMP_temperature;BMP_pressure;BME280_temperature;BME280_humidity;BME280_pressure;Samples;Min_cycle;Max_cycle;Signal;HPM_P1;HPM_P2
2022/07/27 00:00:34;;;;;;;5.10;1.67;;;;;;;;;;5126512;27;20385;-64
2022/07/27 00:03:00;;;;;;;9.15;1.67;;;;;;;;;;5121940;27;20050;-65
2022/07/27 00:05:26;;;;;;;8.35;1.30;;;;;;;;;;5134447;27;20507;-65
2022/07/27 00:07:52;;;;;;;8.98;1.35;;;;;;;;;;5130126;27;20043;-65
2022/07/27 00:10:19;;;;;;;6.40;1.20;;;;;;;;;;5126888;27;20047;-64
2022/07/27 00:12:45;;;;;;;6.88;1.58;;;;;;;;;;5109417;27;20610;-65
2022/07/27 00:15:11;;;;;;;11.23;1.88;;;;;;;;;;5128953;27;20038;-65
2022/07/27 00:17:38;;;;;;;6.35;1.20;;;;;;;;;;5132613;27;20058;-65
2022/07/27 00:20:04;;;;;;;8.85;1.40;;;;;;;;;;5110241;27;20034;-65
2022/07/27 00:22:31;;;;;;;4.10;1.20;;;;;;;;;;5131389;27;20057;-65
2022/07/27 00:24:57;;;;;;;7.15;1.48;;;;;;;;;;5134870;27;20490;-65
2022/07/27 00:27:23;;;;;;;6.97;1.70;;;;;;;;;;5132143;27;20099;-65
2022/07/27 00:29:49;;;;;;;8.05;1.60;;;;;;;;;;5121893;27;20681;-64
2022/07/27 00:32:15;;;;;;;10.43;1.73;;;;;;;;;;5133235;27;20659;-65
2022/07/27 00:34:41;;;;;;;10.15;1.52;;;;;;;;;;5110550;27;20107;-65
2022/07/27 00:37:08;;;;;;;5.82;1.35;;;;;;;;;;5108302;27;20462;-65
2022/07/27 00:39:34;;;;;;;8.98;1.63;;;;;;;;;;5108181;27;20389;-65
2022/07/27 00:42:00;;;;;;;9.40;1.65;;;;;;;;;;5126159;27;20038;-65
2022/07/27 00:44:28;;;;;;;7.68;1.23;;;;;;;;;;5123925;27;20047;-65
2022/07/27 00:46:56;;;;;;;7.38;1.80;;;;;;;;;;5104016;27;20138;-65
2022/07/27 00:49:22;;;;;;;6.55;1.45;;;;;;;;;;5105753;27;20038;-65
2022/07/27 00:51:49;;;;;;;11.25;1.75;;;;;;;;;;5128468;27;20039;-65
2022/07/27 00:54:16;;;;;;;9.80;1.45;;;;;;;;;;5130570;27;20465;-65
2022/07/27 00:56:42;;;;;;;8.73;1.88;;;;;;;;;;5128895;27;20051;-65
2022/07/27 00:59:10;;;;;;;9.95;1.63;;;;;;;;;;5131385;27;20095;-65
2022/07/27 01:01:36;;;;;;;5.03;1.70;;;;;;;;;;5107298;27;20043;-65
2022/07/27 01:04:02;;;;;;;4.82;1.73;;;;;;;;;;5131156;27;20070;-65
2022/07/27 01:06:29;;;;;;;7.18;1.33;;;;;;;;;;5129325;27;20042;-65
2022/07/27 01:09:55;;;;;;;14.00;2.35;;;;;;;;;;5111052;27;20060;-65
2022/07/27 01:11:43;;;;;;;7.68;1.52;;;;;;;;;;5125923;27;20131;-65
2022/07/27 01:14:12;;;;;;;5.55;1.40;;;;;;;;;;5106115;27;20071;-64
2022/07/27 01:16:38;;;;;;;7.70;1.55;;;;;;;;;;5107504;27;20059;-65
2022/07/27 01:19:04;;;;;;;13.10;2.17;;;;;;;;;;5107037;27;20337;-65
2022/07/27 01:21:34;;;;;;;7.75;2.13;;;;;;;;;;5129350;27;20054;-65
2022/07/27 01:24:00;;;;;;;4.97;1.70;;;;;;;;;;5132643;27;20050;-65
2022/07/27 01:26:28;;;;;;;9.98;1.63;;;;;;;;;;5128012;27;20043;-65
2022/07/27 01:28:58;;;;;;;9.00;1.83;;;;;;;;;;5107187;27;20035;-65
2022/07/27 01:31:24;;;;;;;8.82;1.73;;;;;;;;;;5118986;27;20476;-65
2022/07/27 01:33:50;;;;;;;6.60;1.25;;;;;;;;;;5130037;27;20118;-65
2022/07/27 01:36:17;;;;;;;3.50;1.02;;;;;;;;;;5107765;27;20044;-65
2022/07/27 01:38:43;;;;;;;8.02;2.00;;;;;;;;;;5110416;27;20050;-65
2022/07/27 01:41:09;;;;;;;5.55;1.40;;;;;;;;;;5106026;27;20043;-65
2022/07/27 01:43:36;;;;;;;7.03;1.70;;;;;;;;;;5101283;27;20538;-65
2022/07/27 01:46:02;;;;;;;4.20;1.33;;;;;;;;;;5100893;27;20088;-65
2022/07/27 01:48:28;;;;;;;4.20;1.50;;;;;;;;;;5126168;27;20067;-65
2022/07/27 01:50:54;;;;;;;4.32;1.38;;;;;;;;;;5101271;27;20573;-65
2022/07/27 01:53:21;;;;;;;5.40;1.38;;;;;;;;;;5128665;27;20100;-65
2022/07/27 01:55:48;;;;;;;9.75;1.30;;;;;;;;;;5130977;27;20058;-65
2022/07/27 01:58:14;;;;;;;6.75;1.35;;;;;;;;;;5130560;27;20082;-65
2022/07/27 02:00:41;;;;;;;10.68;1.60;;;;;;;;;;5105320;27;20135;-65
2022/07/27 02:03:07;;;;;;;8.32;2.08;;;;;;;;;;5124435;27;20578;-65
2022/07/27 02:05:34;;;;;;;5.28;1.73;;;;;;;;;;5128878;27;20124;-65
2022/07/27 02:08:00;;;;;;;6.07;2.00;;;;;;;;;;5127947;27;20088;-65
2022/07/27 02:10:26;;;;;;;13.32;2.30;;;;;;;;;;5127535;27;20532;-65
2022/07/27 02:12:53;;;;;;;6.30;1.58;;;;;;;;;;5127084;27;20502;-65
2022/07/27 02:15:20;;;;;;;6.65;1.85;;;;;;;;;;5123025;27;20414;-65
2022/07/27 02:17:47;;;;;;;9.57;2.97;;;;;;;;;;5123571;27;20066;-65
2022/07/27 02:20:14;;;;;;;9.15;1.70;;;;;;;;;;5103087;27;20466;-65
2022/07/27 02:22:41;;;;;;;5.20;1.60;;;;;;;;;;5128613;27;20250;-65
2022/07/27 02:25:07;;;;;;;8.70;2.17;;;;;;;;;;5124864;27;20044;-65
2022/07/27 02:27:34;;;;;;;8.77;2.15;;;;;;;;;;5125292;27;20157;-65
2022/07/27 02:30:00;;;;;;;8.23;2.15;;;;;;;;;;5121916;27;20132;-65
2022/07/27 02:32:26;;;;;;;5.72;1.58;;;;;;;;;;5124097;27;20039;-65
2022/07/27 02:34:52;;;;;;;4.38;1.60;;;;;;;;;;5108952;27;20073;-65
2022/07/27 02:37:18;;;;;;;6.60;1.33;;;;;;;;;;5123618;27;20577;-65
2022/07/27 02:39:45;;;;;;;5.03;1.60;;;;;;;;;;5126462;27;20035;-65
2022/07/27 02:42:11;;;;;;;4.13;1.55;;;;;;;;;;5127644;27;20058;-65
2022/07/27 02:44:37;;;;;;;7.72;2.30;;;;;;;;;;5128895;27;20046;-65
2022/07/27 02:47:03;;;;;;;5.85;1.92;;;;;;;;;;5127961;27;20100;-65
2022/07/27 02:49:29;;;;;;;5.50;1.55;;;;;;;;;;5127680;27;20043;-65
2022/07/27 02:51:56;;;;;;;9.25;2.15;;;;;;;;;;5124572;27;20055;-65
2022/07/27 02:54:23;;;;;;;8.90;1.80;;;;;;;;;;5130190;27;20048;-65
2022/07/27 02:56:50;;;;;;;6.32;1.60;;;;;;;;;;5107913;27;20051;-65
2022/07/27 02:59:17;;;;;;;5.68;1.50;;;;;;;;;;5127519;27;20066;-65
2022/07/27 03:01:43;;;;;;;12.05;2.28;;;;;;;;;;5109126;27;20122;-65
2022/07/27 03:04:10;;;;;;;8.68;1.92;;;;;;;;;;5125030;27;20758;-65
2022/07/27 03:06:36;;;;;;;9.32;2.42;;;;;;;;;;5119022;27;20043;-65
2022/07/27 03:09:02;;;;;;;7.95;2.00;;;;;;;;;;5123863;27;20531;-65
2022/07/27 03:11:29;;;;;;;12.95;2.35;;;;;;;;;;5123271;27;20042;-65
2022/07/27 03:13:55;;;;;;;6.10;1.75;;;;;;;;;;5123064;27;20044;-65
2022/07/27 03:16:21;;;;;;;9.82;2.42;;;;;;;;;;5114892;27;20083;-65
2022/07/27 03:18:48;;;;;;;7.47;2.05;;;;;;;;;;5106006;27;20122;-65
2022/07/27 03:21:14;;;;;;;10.73;1.90;;;;;;;;;;5122528;27;20157;-65
2022/07/27 03:23:40;;;;;;;8.38;2.22;;;;;;;;;;5106442;27;20039;-65
2022/07/27 03:26:06;;;;;;;6.32;1.73;;;;;;;;;;5121348;27;20181;-65
2022/07/27 03:28:32;;;;;;;11.57;2.28;;;;;;;;;;5101675;27;20051;-65
2022/07/27 03:30:59;;;;;;;9.60;2.35;;;;;;;;;;5119078;27;20516;-65
2022/07/27 03:33:25;;;;;;;10.90;2.30;;;;;;;;;;5102316;27;20062;-65
2022/07/27 03:35:51;;;;;;;8.68;2.38;;;;;;;;;;5100657;27;20165;-65
2022/07/27 03:38:17;;;;;;;18.20;2.75;;;;;;;;;;5121538;27;20062;-65
2022/07/27 03:40:44;;;;;;;9.40;2.78;;;;;;;;;;5100945;27;20036;-65
2022/07/27 03:43:10;;;;;;;11.48;3.00;;;;;;;;;;5115187;27;20062;-65
2022/07/27 03:45:37;;;;;;;9.52;2.60;;;;;;;;;;5120152;27;20095;-65
2022/07/27 03:48:03;;;;;;;6.45;2.47;;;;;;;;;;5120278;27;20099;-65
2022/07/27 03:50:29;;;;;;;10.40;2.35;;;;;;;;;;5097863;27;20447;-65
2022/07/27 03:52:55;;;;;;;11.43;2.17;;;;;;;;;;5121757;27;20420;-65
2022/07/27 03:55:22;;;;;;;8.88;2.50;;;;;;;;;;5100862;27;20047;-65
2022/07/27 03:57:49;;;;;;;8.20;2.10;;;;;;;;;;5118285;27;20062;-65
2022/07/27 04:00:16;;;;;;;9.52;2.13;;;;;;;;;;5119445;27;20047;-65
2022/07/27 04:02:42;;;;;;;8.60;2.08;;;;;;;;;;5118109;27;20056;-65
2022/07/27 04:05:09;;;;;;;12.68;2.17;;;;;;;;;;5121548;27;20027;-65
2022/07/27 04:07:35;;;;;;;9.05;2.45;;;;;;;;;;5123660;27;20043;-65
2022/07/27 04:10:01;;;;;;;8.63;2.65;;;;;;;;;;5122310;27;20058;-65
2022/07/27 04:12:27;;;;;;;11.10;2.20;;;;;;;;;;5106292;27;20070;-65
2022/07/27 04:14:54;;;;;;;10.57;2.10;;;;;;;;;;5123345;27;20039;-66
2022/07/27 04:17:20;;;;;;;12.25;1.95;;;;;;;;;;5099073;27;20100;-65
2022/07/27 04:19:46;;;;;;;6.15;1.70;;;;;;;;;;5108539;27;20050;-65
2022/07/27 04:22:12;;;;;;;9.05;2.08;;;;;;;;;;5106667;27;20407;-65
2022/07/27 04:24:38;;;;;;;14.82;2.60;;;;;;;;;;5083723;27;21209;-65
2022/07/27 04:27:04;;;;;;;7.05;2.20;;;;;;;;;;5118991;27;20039;-65
2022/07/27 04:29:31;;;;;;;9.38;2.60;;;;;;;;;;5120948;27;20039;-65
2022/07/27 04:31:57;;;;;;;12.38;2.90;;;;;;;;;;5120924;27;20042;-65
2022/07/27 04:34:23;;;;;;;11.48;2.30;;;;;;;;;;5127357;27;20050;-65
2022/07/27 04:36:49;;;;;;;11.43;2.45;;;;;;;;;;5122790;27;20054;-65
2022/07/27 04:39:15;;;;;;;7.93;2.05;;;;;;;;;;5108810;27;20042;-65
2022/07/27 04:41:42;;;;;;;9.60;2.25;;;;;;;;;;5121442;27;20145;-65
2022/07/27 04:44:08;;;;;;;11.10;2.10;;;;;;;;;;5119190;27;20035;-65
2022/07/27 04:46:34;;;;;;;7.38;2.50;;;;;;;;;;5083919;27;20035;-65
2022/07/27 04:49:00;;;;;;;10.07;2.92;;;;;;;;;;5125006;27;20126;-65
2022/07/27 04:51:26;;;;;;;11.68;2.95;;;;;;;;;;5107863;27;20047;-65
2022/07/27 04:53:53;;;;;;;8.55;2.80;;;;;;;;;;5109483;27;20055;-65
2022/07/27 04:56:19;;;;;;;9.70;2.33;;;;;;;;;;5124720;27;20486;-65
2022/07/27 04:58:45;;;;;;;9.88;2.40;;;;;;;;;;5131902;27;20119;-65
2022/07/27 05:01:11;;;;;;;13.02;2.80;;;;;;;;;;5110373;27;20055;-65
2022/07/27 05:03:39;;;;;;;10.15;2.85;;;;;;;;;;5135200;27;20074;-65
2022/07/27 05:06:05;;;;;;;12.73;2.40;;;;;;;;;;5101680;27;20035;-65
2022/07/27 05:08:32;;;;;;;8.82;2.05;;;;;;;;;;5130627;27;20142;-65
2022/07/27 05:10:58;;;;;;;8.57;2.40;;;;;;;;;;5118312;27;20438;-65
2022/07/27 05:13:24;;;;;;;10.75;2.50;;;;;;;;;;5119687;27;20181;-65
2022/07/27 05:15:50;;;;;;;7.28;2.60;;;;;;;;;;5104744;27;20039;-65
2022/07/27 05:18:17;;;;;;;10.40;3.13;;;;;;;;;;5115979;27;20042;-65
2022/07/27 05:20:44;;;;;;;7.88;2.40;;;;;;;;;;5130643;27;20118;-65
2022/07/27 05:23:10;;;;;;;7.57;2.58;;;;;;;;;;5105093;27;20489;-65
2022/07/27 05:25:37;;;;;;;6.30;2.30;;;;;;;;;;5125347;27;20035;-65
2022/07/27 05:28:03;;;;;;;9.10;2.78;;;;;;;;;;5124855;27;20089;-65
2022/07/27 05:30:29;;;;;;;13.55;3.20;;;;;;;;;;5122273;27;20051;-65
2022/07/27 05:32:55;;;;;;;7.10;2.00;;;;;;;;;;5107416;27;20113;-65
2022/07/27 05:35:22;;;;;;;8.98;1.80;;;;;;;;;;5110417;27;20088;-65
2022/07/27 05:37:48;;;;;;;11.40;2.72;;;;;;;;;;5113665;27;20055;-65
2022/07/27 05:40:15;;;;;;;7.75;2.17;;;;;;;;;;5129549;27;20052;-65
2022/07/27 05:42:42;;;;;;;11.43;2.30;;;;;;;;;;5124053;27;20043;-65
2022/07/27 05:45:10;;;;;;;13.52;2.42;;;;;;;;;;5131816;27;20084;-65
2022/07/27 05:47:36;;;;;;;19.85;2.67;;;;;;;;;;5110786;27;20070;-65
2022/07/27 05:50:03;;;;;;;10.35;1.98;;;;;;;;;;5129234;27;20066;-65
2022/07/27 05:52:29;;;;;;;13.02;2.30;;;;;;;;;;5124469;27;20123;-65
2022/07/27 05:54:55;;;;;;;8.70;2.10;;;;;;;;;;5125499;27;20050;-65
2022/07/27 05:57:21;;;;;;;7.57;2.13;;;;;;;;;;5122236;27;20084;-65
2022/07/27 05:59:47;;;;;;;9.40;2.20;;;;;;;;;;5125930;27;20381;-65
2022/07/27 06:02:13;;;;;;;8.23;2.03;;;;;;;;;;5124672;27;20103;-65
2022/07/27 06:04:40;;;;;;;8.70;1.73;;;;;;;;;;5104300;27;20076;-65
2022/07/27 06:09:51;;;;;;;8.82;1.92;;;;;;;;;;5108559;27;20679;-65
2022/07/27 06:12:17;;;;;;;9.10;2.00;;;;;;;;;;5127481;27;21754;-65
2022/07/27 06:14:43;;;;;;;8.27;1.58;;;;;;;;;;5105191;27;20038;-65
2022/07/27 06:17:10;;;;;;;9.73;2.00;;;;;;;;;;5120506;27;20070;-65
2022/07/27 06:19:38;;;;;;;5.68;1.10;;;;;;;;;;5118104;27;20087;-65
2022/07/27 06:22:05;;;;;;;9.25;1.55;;;;;;;;;;5121481;27;20406;-65
2022/07/27 06:24:33;;;;;;;11.35;1.50;;;;;;;;;;5107157;27;20125;-65
2022/07/27 06:26:59;;;;;;;5.80;1.15;;;;;;;;;;5123871;27;20051;-65
2022/07/27 06:29:26;;;;;;;10.07;2.13;;;;;;;;;;5101662;27;20050;-65
2022/07/27 06:31:52;;;;;;;8.88;1.40;;;;;;;;;;5119802;27;20043;-66
2022/07/27 06:34:18;;;;;;;13.55;1.60;;;;;;;;;;5116448;27;20054;-65
2022/07/27 06:36:44;;;;;;;9.77;1.92;;;;;;;;;;5096968;27;20054;-65
2022/07/27 06:39:11;;;;;;;7.80;1.65;;;;;;;;;;5100832;27;20111;-65
2022/07/27 06:41:38;;;;;;;8.15;1.90;;;;;;;;;;5123455;27;20062;-65
2022/07/27 06:44:04;;;;;;;5.25;1.42;;;;;;;;;;5120523;27;20077;-65
2022/07/27 06:46:30;;;;;;;7.60;1.45;;;;;;;;;;5117780;27;20031;-65
2022/07/27 06:48:56;;;;;;;12.52;1.95;;;;;;;;;;5117829;27;20062;-65
2022/07/27 06:51:23;;;;;;;7.13;1.50;;;;;;;;;;5103140;27;20509;-65
2022/07/27 06:53:52;;;;;;;4.40;1.63;;;;;;;;;;5102033;27;20138;-65
2022/07/27 06:56:18;;;;;;;11.27;1.63;;;;;;;;;;5130038;27;20556;-65
2022/07/27 06:58:45;;;;;;;9.60;1.70;;;;;;;;;;5137532;27;20067;-65
2022/07/27 07:01:11;;;;;;;7.47;1.60;;;;;;;;;;5132923;27;20043;-65
2022/07/27 07:03:37;;;;;;;10.55;2.35;;;;;;;;;;5125224;27;20377;-65
2022/07/27 07:06:03;;;;;;;7.88;1.40;;;;;;;;;;5127259;27;20033;-65
2022/07/27 07:08:30;;;;;;;9.00;1.48;;;;;;;;;;5127062;27;20115;-65
2022/07/27 07:10:56;;;;;;;7.45;1.20;;;;;;;;;;5128666;27;20043;-65
2022/07/27 07:13:22;;;;;;;9.02;1.67;;;;;;;;;;5136474;27;20095;-65
2022/07/27 07:15:48;;;;;;;6.05;1.30;;;;;;;;;;5137460;27;20398;-65
2022/07/27 07:18:14;;;;;;;6.55;1.77;;;;;;;;;;5110112;27;20164;-65
2022/07/27 07:20:41;;;;;;;5.45;1.10;;;;;;;;;;5110046;27;20963;-65
2022/07/27 07:23:07;;;;;;;7.00;2.15;;;;;;;;;;5135451;27;20470;-65
2022/07/27 07:25:33;;;;;;;6.60;1.42;;;;;;;;;;5137031;27;20422;-65
2022/07/27 07:28:00;;;;;;;8.07;1.70;;;;;;;;;;5134254;27;20042;-65
2022/07/27 07:30:27;;;;;;;10.35;1.80;;;;;;;;;;5123247;27;22020;-65
2022/07/27 07:32:53;;;;;;;11.15;1.83;;;;;;;;;;5129738;27;20047;-65
2022/07/27 07:35:19;;;;;;;4.38;1.17;;;;;;;;;;5129269;27;20134;-65
2022/07/27 07:37:45;;;;;;;4.55;1.40;;;;;;;;;;5131567;27;20084;-65
2022/07/27 07:40:12;;;;;;;6.05;1.92;;;;;;;;;;5123790;27;20035;-65
2022/07/27 07:42:49;;;;;;;7.78;1.50;;;;;;;;;;5117122;27;20050;-65
2022/07/27 07:45:15;;;;;;;15.25;2.10;;;;;;;;;;5120754;27;20081;-65
2022/07/27 07:47:42;;;;;;;6.03;1.60;;;;;;;;;;5105032;27;20035;-65
2022/07/27 07:50:08;;;;;;;7.45;1.67;;;;;;;;;;5106641;27;20077;-65
2022/07/27 07:52:35;;;;;;;23.02;2.58;;;;;;;;;;5118716;27;20046;-65
2022/07/27 07:55:01;;;;;;;4.10;1.20;;;;;;;;;;5116683;27;20050;-65
2022/07/27 07:57:27;;;;;;;7.57;1.67;;;;;;;;;;5101750;27;20374;-65
2022/07/27 07:59:53;;;;;;;5.78;1.42;;;;;;;;;;5105471;27;20130;-65
2022/07/27 08:02:20;;;;;;;6.85;1.48;;;;;;;;;;5103906;27;20043;-65
2022/07/27 08:04:47;;;;;;;8.02;1.85;;;;;;;;;;5123101;27;20120;-65
2022/07/27 08:07:13;;;;;;;7.68;1.63;;;;;;;;;;5097523;27;20043;-65
2022/07/27 08:09:39;;;;;;;9.88;2.00;;;;;;;;;;5126695;27;20103;-65
2022/07/27 08:12:05;;;;;;;9.45;2.35;;;;;;;;;;5128141;27;20041;-65
2022/07/27 08:14:33;;;;;;;8.50;1.80;;;;;;;;;;5105946;27;20147;-65
2022/07/27 08:16:59;;;;;;;9.00;1.90;;;;;;;;;;5123019;27;20464;-66
2022/07/27 08:19:25;;;;;;;12.93;1.90;;;;;;;;;;5102386;27;20038;-65
2022/07/27 08:21:51;;;;;;;8.63;1.73;;;;;;;;;;5100039;27;20062;-65
2022/07/27 08:24:17;;;;;;;6.10;1.40;;;;;;;;;;5101227;27;20054;-65
2022/07/27 08:26:43;;;;;;;7.03;1.50;;;;;;;;;;5118348;27;20058;-65
2022/07/27 08:29:10;;;;;;;10.40;1.83;;;;;;;;;;5127986;27;20367;-66
2022/07/27 08:31:36;;;;;;;6.85;1.60;;;;;;;;;;5127701;27;20038;-65
2022/07/27 08:34:03;;;;;;;6.45;1.48;;;;;;;;;;5130568;27;20043;-66
2022/07/27 08:36:29;;;;;;;6.30;1.40;;;;;;;;;;5126799;27;20043;-65
2022/07/27 08:38:55;;;;;;;5.70;1.60;;;;;;;;;;5122182;27;20043;-65
2022/07/27 08:41:22;;;;;;;9.85;1.80;;;;;;;;;;5123593;27;20039;-65
2022/07/27 08:43:48;;;;;;;10.27;2.10;;;;;;;;;;5126040;27;20405;-66
2022/07/27 08:46:17;;;;;;;5.55;1.27;;;;;;;;;;5126580;27;20469;-65
2022/07/27 08:48:43;;;;;;;8.93;1.38;;;;;;;;;;5124667;27;20110;-66
2022/07/27 08:51:10;;;;;;;7.05;1.77;;;;;;;;;;5104228;27;20038;-66
2022/07/27 08:53:37;;;;;;;4.47;1.30;;;;;;;;;;5120332;27;20132;-65
2022/07/27 08:56:03;;;;;;;7.72;1.38;;;;;;;;;;5103239;27;21838;-65
2022/07/27 08:58:29;;;;;;;13.73;2.17;;;;;;;;;;5122956;27;20072;-65
2022/07/27 09:00:56;;;;;;;4.50;1.38;;;;;;;;;;5128167;27;20031;-66
2022/07/27 09:03:23;;;;;;;5.75;1.30;;;;;;;;;;5135063;27;20050;-65
2022/07/27 09:05:51;;;;;;;9.38;1.75;;;;;;;;;;5126992;27;20126;-65
2022/07/27 09:08:21;;;;;;;5.07;1.15;;;;;;;;;;5107637;27;20053;-66
2022/07/27 09:10:47;;;;;;;5.85;1.27;;;;;;;;;;5113265;27;20390;-65
2022/07/27 09:13:22;;;;;;;5.03;1.20;;;;;;;;;;5118819;27;20047;-65
2022/07/27 09:15:50;;;;;;;7.82;1.30;;;;;;;;;;5125157;27;20122;-65
2022/07/27 09:18:18;;;;;;;8.88;1.63;;;;;;;;;;5130393;27;20130;-66
2022/07/27 09:20:44;;;;;;;10.38;1.60;;;;;;;;;;5127539;27;20179;-65
2022/07/27 09:23:11;;;;;;;5.25;1.02;;;;;;;;;;5127347;27;20454;-65
2022/07/27 09:25:38;;;;;;;8.25;1.45;;;;;;;;;;5125641;27;20038;-66
2022/07/27 09:28:05;;;;;;;5.97;1.20;;;;;;;;;;5124412;27;20044;-65
2022/07/27 09:30:31;;;;;;;9.90;1.17;;;;;;;;;;5126737;27;20169;-66
2022/07/27 09:32:58;;;;;;;7.97;1.25;;;;;;;;;;5131154;27;20043;-66
2022/07/27 09:35:26;;;;;;;7.03;1.33;;;;;;;;;;5127749;27;20136;-65
2022/07/27 09:37:53;;;;;;;8.25;1.45;;;;;;;;;;5126243;27;20066;-66
2022/07/27 09:40:20;;;;;;;10.20;1.77;;;;;;;;;;5126163;27;20058;-65
2022/07/27 09:42:47;;;;;;;8.85;1.20;;;;;;;;;;5108238;27;21160;-65
2022/07/27 09:45:30;;;;;;;4.63;1.13;;;;;;;;;;5127021;27;20073;-66
2022/07/27 09:48:06;;;;;;;8.55;1.35;;;;;;;;;;5133403;27;20046;-66
2022/07/27 09:50:32;;;;;;;6.05;1.38;;;;;;;;;;5127853;27;20043;-66
2022/07/27 09:53:12;;;;;;;9.00;1.70;;;;;;;;;;5127910;27;20043;-65
2022/07/27 09:55:40;;;;;;;4.82;1.20;;;;;;;;;;5121230;27;21073;-66
2022/07/27 09:58:07;;;;;;;4.57;0.80;;;;;;;;;;5104118;27;20081;-65
2022/07/27 10:00:33;;;;;;;6.55;0.95;;;;;;;;;;5134254;27;20070;-65
2022/07/27 10:02:59;;;;;;;7.53;1.02;;;;;;;;;;5123333;27;20150;-65
2022/07/27 10:05:26;;;;;;;5.45;1.08;;;;;;;;;;5124122;27;20660;-66
2022/07/27 10:07:53;;;;;;;5.30;1.23;;;;;;;;;;5123025;27;20439;-66
2022/07/27 10:10:20;;;;;;;6.57;1.10;;;;;;;;;;5104304;27;20054;-66
2022/07/27 10:12:47;;;;;;;5.80;1.73;;;;;;;;;;5126097;27;20517;-66
2022/07/27 10:15:13;;;;;;;7.55;1.25;;;;;;;;;;5127146;27;20183;-65
2022/07/27 10:17:41;;;;;;;2.88;0.90;;;;;;;;;;5124148;27;20046;-66
2022/07/27 10:20:09;;;;;;;7.35;1.23;;;;;;;;;;5099805;27;20053;-65
2022/07/27 10:22:52;;;;;;;8.95;1.25;;;;;;;;;;5121522;27;20039;-65
2022/07/27 10:25:18;;;;;;;;;;;;;;;;;;5124363;27;20122;-65
2022/07/27 10:27:48;;;;;;;2.40;0.90;;;;;;;;;;5123519;27;19923;-65
2022/07/27 10:30:16;;;;;;;4.13;0.82;;;;;;;;;;5123102;27;20078;-66
2022/07/27 10:32:43;;;;;;;4.85;0.90;;;;;;;;;;5120016;27;20043;-66
2022/07/27 10:35:29;;;;;;;5.53;0.98;;;;;;;;;;5124820;27;20047;-66
2022/07/27 10:38:07;;;;;;;3.03;1.00;;;;;;;;;;5125608;27;20046;-66
2022/07/27 10:40:33;;;;;;;3.67;0.85;;;;;;;;;;5106281;27;20478;-66
2022/07/27 10:43:06;;;;;;;3.53;0.63;;;;;;;;;;5107253;27;20529;-66
2022/07/27 10:45:39;;;;;;;4.35;1.00;;;;;;;;;;5108058;27;20064;-66
2022/07/27 10:48:05;;;;;;;4.07;0.95;;;;;;;;;;5137562;27;20042;-66
2022/07/27 10:50:32;;;;;;;3.60;0.70;;;;;;;;;;5140049;27;20067;-66
2022/07/27 10:53:00;;;;;;;6.13;0.90;;;;;;;;;;5133015;27;20667;-66
2022/07/27 10:55:41;;;;;;;4.63;0.90;;;;;;;;;;5110178;27;20118;-65
2022/07/27 10:58:08;;;;;;;4.07;0.60;;;;;;;;;;5103114;27;20043;-66
2022/07/27 11:00:48;;;;;;;5.57;0.80;;;;;;;;;;5122656;27;20058;-66
2022/07/27 11:03:21;;;;;;;6.15;1.00;;;;;;;;;;5124992;27;20058;-66
2022/07/27 11:05:54;;;;;;;4.50;0.93;;;;;;;;;;5124807;27;20039;-66
2022/07/27 11:08:24;;;;;;;9.50;0.98;;;;;;;;;;5128691;27;20039;-66
2022/07/27 11:10:51;;;;;;;3.58;0.75;;;;;;;;;;5130882;27;20069;-66
2022/07/27 11:13:18;;;;;;;4.28;0.77;;;;;;;;;;5122528;27;20047;-65
2022/07/27 11:15:54;;;;;;;4.90;0.80;;;;;;;;;;5107629;27;20891;-66
2022/07/27 11:18:25;;;;;;;6.82;0.90;;;;;;;;;;5128447;27;20051;-65
2022/07/27 11:20:51;;;;;;;3.83;0.90;;;;;;;;;;5127559;27;20043;-66
2022/07/27 11:23:19;;;;;;;4.63;0.80;;;;;;;;;;5128616;27;20362;-65
2022/07/27 11:25:59;;;;;;;5.57;0.90;;;;;;;;;;5124904;27;20165;-66
2022/07/27 11:28:29;;;;;;;4.60;0.73;;;;;;;;;;5124497;27;20047;-65
2022/07/27 11:30:56;;;;;;;4.63;0.85;;;;;;;;;;5125475;27;20497;-65
2022/07/27 11:33:22;;;;;;;4.22;0.80;;;;;;;;;;5108565;27;20045;-65
2022/07/27 11:35:52;;;;;;;7.22;0.90;;;;;;;;;;5130082;27;20093;-66
2022/07/27 11:38:18;;;;;;;3.72;0.90;;;;;;;;;;5128507;27;20054;-66
2022/07/27 11:40:46;;;;;;;6.68;1.02;;;;;;;;;;5131963;27;20058;-66
2022/07/27 11:43:12;;;;;;;5.68;1.08;;;;;;;;;;5135891;27;20058;-66
2022/07/27 11:45:40;;;;;;;7.20;1.10;;;;;;;;;;5114133;27;20050;-66
2022/07/27 11:48:09;;;;;;;7.75;1.50;;;;;;;;;;5134939;27;20065;-67
2022/07/27 11:50:35;;;;;;;10.70;1.38;;;;;;;;;;5131955;27;20162;-66
2022/07/27 11:53:02;;;;;;;3.10;0.60;;;;;;;;;;5117527;27;20053;-65
2022/07/27 11:55:28;;;;;;;7.45;0.82;;;;;;;;;;5117586;27;20477;-65
2022/07/27 11:58:02;;;;;;;6.18;0.90;;;;;;;;;;5130822;27;20084;-65
2022/07/27 12:00:39;;;;;;;3.65;0.80;;;;;;;;;;5113076;27;20054;-65
2022/07/27 12:03:06;;;;;;;7.25;1.20;;;;;;;;;;5138956;27;20476;-65
2022/07/27 12:05:32;;;;;;;5.78;1.17;;;;;;;;;;5127058;27;20545;-65
2022/07/27 12:07:58;;;;;;;4.40;0.88;;;;;;;;;;5126434;27;20127;-66
2022/07/27 12:10:24;;;;;;;4.88;0.73;;;;;;;;;;5125476;27;20043;-65
2022/07/27 12:12:50;;;;;;;4.15;0.80;;;;;;;;;;5105889;27;20047;-66
2022/07/27 12:15:18;;;;;;;4.97;0.80;;;;;;;;;;5122368;27;20165;-65
2022/07/27 12:17:46;;;;;;;4.20;1.00;;;;;;;;;;5109723;27;20063;-65
2022/07/27 12:20:14;;;;;;;5.63;0.93;;;;;;;;;;5127565;27;20080;-65
2022/07/27 12:22:42;;;;;;;6.55;1.00;;;;;;;;;;5108451;27;20072;-65
2022/07/27 12:25:13;;;;;;;5.88;1.20;;;;;;;;;;5111390;27;20122;-65
2022/07/27 12:27:39;;;;;;;5.95;1.00;;;;;;;;;;5125336;27;20078;-66
2022/07/27 12:30:06;;;;;;;6.43;0.88;;;;;;;;;;5136533;27;20115;-65
2022/07/27 12:32:34;;;;;;;3.55;1.10;;;;;;;;;;5139234;27;20038;-65
2022/07/27 12:35:01;;;;;;;4.47;0.90;;;;;;;;;;5112085;27;20143;-66
2022/07/27 12:37:29;;;;;;;4.28;1.08;;;;;;;;;;5105682;27;20092;-65
2022/07/27 12:39:55;;;;;;;5.70;1.10;;;;;;;;;;5125190;27;20092;-65
2022/07/27 12:42:31;;;;;;;5.15;1.00;;;;;;;;;;5125189;27;20099;-66
2022/07/27 12:44:57;;;;;;;6.28;1.02;;;;;;;;;;5109180;27;20387;-65
2022/07/27 12:47:40;;;;;;;5.00;1.25;;;;;;;;;;5135983;27;20047;-65
2022/07/27 12:50:13;;;;;;;6.37;1.10;;;;;;;;;;5131284;27;20466;-66
2022/07/27 12:52:42;;;;;;;3.15;0.77;;;;;;;;;;5134967;27;20039;-65
2022/07/27 12:55:09;;;;;;;6.60;1.17;;;;;;;;;;5132798;27;20062;-66
2022/07/27 12:57:35;;;;;;;7.25;1.30;;;;;;;;;;5112035;27;20042;-66
2022/07/27 13:00:03;;;;;;;6.50;1.17;;;;;;;;;;5135737;27;20122;-66
2022/07/27 13:02:29;;;;;;;4.88;0.80;;;;;;;;;;5114046;27;20057;-66
2022/07/27 13:04:55;;;;;;;4.97;1.20;;;;;;;;;;5108428;27;20065;-66
2022/07/27 13:07:22;;;;;;;7.40;1.55;;;;;;;;;;5118005;27;20099;-66
2022/07/27 13:09:48;;;;;;;4.95;1.45;;;;;;;;;;5114931;27;20054;-65
2022/07/27 13:12:15;;;;;;;10.13;1.33;;;;;;;;;;5127052;27;20074;-66
2022/07/27 13:14:41;;;;;;;5.68;1.10;;;;;;;;;;5129523;27;20455;-65
2022/07/27 13:17:07;;;;;;;5.95;1.70;;;;;;;;;;5125268;27;20055;-66
2022/07/27 13:19:33;;;;;;;4.03;0.93;;;;;;;;;;5129664;27;20039;-66
2022/07/27 13:22:00;;;;;;;6.38;0.93;;;;;;;;;;5109028;27;20186;-66
2022/07/27 13:24:26;;;;;;;8.30;0.88;;;;;;;;;;5127220;27;20118;-65
2022/07/27 13:26:53;;;;;;;5.00;1.30;;;;;;;;;;5110056;27;20043;-66
2022/07/27 13:29:19;;;;;;;5.82;0.80;;;;;;;;;;5131840;27;20389;-65
2022/07/27 13:31:46;;;;;;;4.53;1.33;;;;;;;;;;5137047;27;20339;-66
2022/07/27 13:34:12;;;;;;;4.50;0.90;;;;;;;;;;5118046;27;21620;-66
2022/07/27 13:36:39;;;;;;;5.13;1.17;;;;;;;;;;5136581;27;20050;-66
2022/07/27 13:39:07;;;;;;;7.28;1.05;;;;;;;;;;5117013;27;20043;-66
2022/07/27 13:41:34;;;;;;;4.38;1.02;;;;;;;;;;5129981;27;20045;-65
2022/07/27 13:44:00;;;;;;;5.15;1.17;;;;;;;;;;5133389;27;20130;-65
2022/07/27 13:46:26;;;;;;;8.13;1.40;;;;;;;;;;5131593;27;20067;-65
2022/07/27 13:48:52;;;;;;;4.72;1.10;;;;;;;;;;5132847;27;20043;-65
2022/07/27 13:51:18;;;;;;;5.15;1.20;;;;;;;;;;5130707;27;20397;-65
2022/07/27 13:53:45;;;;;;;6.15;1.00;;;;;;;;;;5135573;27;20037;-65
2022/07/27 13:56:11;;;;;;;6.13;1.10;;;;;;;;;;5118455;27;20157;-65
2022/07/27 13:58:39;;;;;;;8.60;1.90;;;;;;;;;;5130745;27;20050;-66
2022/07/27 14:01:06;;;;;;;8.82;1.33;;;;;;;;;;5126988;27;20042;-66
2022/07/27 14:03:32;;;;;;;6.22;1.20;;;;;;;;;;5129233;27;20072;-66
2022/07/27 14:05:59;;;;;;;5.07;1.13;;;;;;;;;;5130260;27;20031;-66
2022/07/27 14:08:25;;;;;;;6.78;1.30;;;;;;;;;;5116101;27;20054;-65
2022/07/27 14:10:52;;;;;;;6.50;1.00;;;;;;;;;;5131606;27;20107;-65
2022/07/27 14:13:20;;;;;;;6.15;1.00;;;;;;;;;;5129580;27;20390;-66
2022/07/27 14:15:48;;;;;;;8.13;1.38;;;;;;;;;;5109893;27;20059;-65
2022/07/27 14:18:14;;;;;;;5.18;1.40;;;;;;;;;;5109163;27;20122;-65
2022/07/27 14:20:40;;;;;;;8.45;1.50;;;;;;;;;;5119934;27;20041;-65
2022/07/27 14:23:06;;;;;;;4.93;1.25;;;;;;;;;;5115667;27;20162;-65
2022/07/27 14:25:33;;;;;;;10.52;2.63;;;;;;;;;;5117507;27;20039;-65
2022/07/27 14:27:59;;;;;;;4.32;1.20;;;;;;;;;;5113216;27;20114;-65
2022/07/27 14:30:26;;;;;;;4.78;1.10;;;;;;;;;;5115507;27;20394;-65
2022/07/27 14:32:52;;;;;;;5.40;1.23;;;;;;;;;;5113124;27;20070;-65
2022/07/27 14:35:18;;;;;;;8.20;1.33;;;;;;;;;;5108410;27;20070;-65
2022/07/27 14:37:45;;;;;;;9.70;1.63;;;;;;;;;;5112228;27;20483;-65
2022/07/27 14:40:12;;;;;;;5.88;1.38;;;;;;;;;;5111263;27;20130;-65
2022/07/27 14:42:38;;;;;;;5.90;1.10;;;;;;;;;;5112610;27;20126;-65